Time;durP1;ratioP1;P1;durP2;ratioP2;P2;SDS_P1;SDS_P2;PMS_P1;PMS_P2;Temp;Humidity;BMP_temperature;BMP_pressure;BME280_temperature;BME280_humidity;BME280_pressure;Samples;Min_cycle;Max_cycle;Signal;HPM_P1;HPM_P2
2022/12/03 00:02:26;;;;;;;316.63;284.45;;;;;;;;;;6216290;28;20119;-80
2022/12/03 00:05:28;;;;;;;306.77;275.48;;;;;;;;;;6215080;28;20045;-80
2022/12/03 00:08:30;;;;;;;308.08;277.25;;;;;;;;;;6211782;28;20117;-80
2022/12/03 00:11:32;;;;;;;300.88;270.25;;;;;;;;;;6195146;28;20529;-80
2022/12/03 00:14:34;;;;;;;325.00;291.40;;;;;;;;;;6213144;28;20498;-80
2022/12/03 00:17:41;;;;;;;309.67;278.08;;;;;;;;;;6210694;28;20045;-80
2022/12/03 00:20:43;;;;;;;325.25;291.35;;;;;;;;;;6213628;28;20489;-80
2022/12/03 00:23:45;;;;;;;325.23;292.15;;;;;;;;;;6214149;28;20042;-80
2022/12/03 00:26:46;;;;;;;326.50;292.95;;;;;;;;;;6212299;28;20056;-80
2022/12/03 00:29:48;;;;;;;327.52;293.85;;;;;;;;;;6214052;28;20037;-80
2022/12/03 00:32:50;;;;;;;335.00;301.30;;;;;;;;;;6210030;28;20049;-79
2022/12/03 00:35:51;;;;;;;335.90;302.13;;;;;;;;;;6211705;28;20049;-80
2022/12/03 00:38:53;;;;;;;340.98;306.27;;;;;;;;;;6204705;28;20056;-80
2022/12/03 00:41:55;;;;;;;338.48;303.85;;;;;;;;;;6196203;28;20041;-80
2022/12/03 00:44:57;;;;;;;345.40;311.23;;;;;;;;;;6195471;28;20103;-80
2022/12/03 00:47:59;;;;;;;346.27;311.90;;;;;;;;;;6196238;28;20270;-80
2022/12/03 00:51:01;;;;;;;344.08;309.80;;;;;;;;;;6192657;28;20050;-80
2022/12/03 00:54:02;;;;;;;341.60;307.27;;;;;;;;;;6177657;28;20052;-80
2022/12/03 00:57:04;;;;;;;303.10;272.77;;;;;;;;;;6197692;28;20064;-80
2022/12/03 01:00:07;;;;;;;313.73;282.13;;;;;;;;;;6177701;28;20045;-79
2022/12/03 01:03:10;;;;;;;326.87;294.37;;;;;;;;;;6196525;28;20422;-80
2022/12/03 01:06:11;;;;;;;323.02;291.15;;;;;;;;;;6190467;28;20533;-80
2022/12/03 01:09:13;;;;;;;341.48;307.23;;;;;;;;;;6198064;28;20522;-79
2022/12/03 01:12:15;;;;;;;361.80;324.92;;;;;;;;;;6198406;28;20050;-80
2022/12/03 01:15:16;;;;;;;348.02;312.88;;;;;;;;;;6194073;28;20045;-79
2022/12/03 01:18:18;;;;;;;344.00;309.25;;;;;;;;;;6192478;28;20102;-79
2022/12/03 01:21:20;;;;;;;336.88;302.75;;;;;;;;;;6188424;28;20518;-80
2022/12/03 01:24:21;;;;;;;333.02;299.80;;;;;;;;;;6193880;28;20053;-80
2022/12/03 01:27:23;;;;;;;335.75;301.67;;;;;;;;;;6195119;28;20054;-80
2022/12/03 01:30:25;;;;;;;324.65;292.10;;;;;;;;;;6195281;28;20053;-80
2022/12/03 01:33:27;;;;;;;314.92;283.75;;;;;;;;;;6197433;28;20042;-80
2022/12/03 01:36:29;;;;;;;305.02;274.70;;;;;;;;;;6197154;28;21320;-80
2022/12/03 01:39:30;;;;;;;297.65;268.25;;;;;;;;;;6174808;28;20227;-80
2022/12/03 01:42:35;;;;;;;307.60;277.35;;;;;;;;;;6192492;28;20065;-80
2022/12/03 01:45:37;;;;;;;319.58;288.23;;;;;;;;;;6191705;28;20053;-80
2022/12/03 01:48:38;;;;;;;307.02;276.55;;;;;;;;;;6194855;28;20088;-79
2022/12/03 01:51:40;;;;;;;312.63;280.98;;;;;;;;;;6187506;28;20053;-80
2022/12/03 01:54:49;;;;;;;307.90;276.67;;;;;;;;;;6193680;28;20042;-80
2022/12/03 01:57:55;;;;;;;313.08;281.65;;;;;;;;;;6190812;28;20042;-79
2022/12/03 02:01:01;;;;;;;318.15;286.55;;;;;;;;;;6192354;28;20056;-80
2022/12/03 02:04:03;;;;;;;322.67;290.35;;;;;;;;;;6175298;28;20057;-79
2022/12/03 02:07:16;;;;;;;323.08;291.23;;;;;;;;;;6190241;28;20049;-80
2022/12/03 02:10:23;;;;;;;321.55;289.73;;;;;;;;;;6199209;28;20049;-80
2022/12/03 02:13:24;;;;;;;325.27;293.20;;;;;;;;;;6190925;28;20054;-80
2022/12/03 02:16:27;;;;;;;317.80;286.58;;;;;;;;;;6191009;28;20046;-80
2022/12/03 02:19:29;;;;;;;312.67;281.55;;;;;;;;;;6191731;28;20061;-80
2022/12/03 02:22:52;;;;;;;301.98;271.83;;;;;;;;;;6190745;28;20038;-81
2022/12/03 02:25:53;;;;;;;314.70;284.10;;;;;;;;;;6189630;28;20135;-80
2022/12/03 02:28:55;;;;;;;314.17;283.38;;;;;;;;;;6190177;28;20766;-80
2022/12/03 02:31:57;;;;;;;316.55;285.40;;;;;;;;;;6190758;28;20046;-79
2022/12/03 02:34:59;;;;;;;312.33;281.63;;;;;;;;;;6189769;28;20057;-80
2022/12/03 02:38:10;;;;;;;296.25;267.30;;;;;;;;;;6182097;28;20656;-80
2022/12/03 02:42:33;;;;;;;285.60;257.13;;;;;;;;;;6187365;28;20096;-79
2022/12/03 02:44:37;;;;;;;296.23;267.05;;;;;;;;;;6189520;28;20239;-80
2022/12/03 02:48:01;;;;;;;290.23;261.65;;;;;;;;;;6186583;28;20130;-80
2022/12/03 02:51:08;;;;;;;286.13;258.10;;;;;;;;;;6186580;28;20053;-80
2022/12/03 02:54:10;;;;;;;286.15;258.55;;;;;;;;;;6188364;28;20502;-80
2022/12/03 02:57:14;;;;;;;286.08;257.90;;;;;;;;;;6183574;28;20224;-79
2022/12/03 03:00:17;;;;;;;288.55;260.30;;;;;;;;;;6148531;28;20042;-80
2022/12/03 03:03:19;;;;;;;275.27;248.10;;;;;;;;;;6172206;28;20076;-80
2022/12/03 03:06:21;;;;;;;274.67;247.20;;;;;;;;;;6189797;28;20535;-80
2022/12/03 03:09:23;;;;;;;283.13;255.10;;;;;;;;;;6190396;28;20478;-80
2022/12/03 03:12:25;;;;;;;281.45;253.52;;;;;;;;;;6190738;28;21466;-80
2022/12/03 03:15:27;;;;;;;281.60;254.25;;;;;;;;;;6190186;28;20045;-80
2022/12/03 03:18:29;;;;;;;291.27;262.98;;;;;;;;;;6190133;28;20050;-80
2022/12/03 03:21:30;;;;;;;295.63;266.83;;;;;;;;;;6189123;28;20052;-81
2022/12/03 03:24:32;;;;;;;293.23;264.80;;;;;;;;;;6188194;28;20050;-79
2022/12/03 03:27:34;;;;;;;295.70;267.25;;;;;;;;;;6188442;28;20089;-80
2022/12/03 03:30:38;;;;;;;296.98;268.63;;;;;;;;;;6188280;28;20050;-80
2022/12/03 03:33:42;;;;;;;301.17;271.70;;;;;;;;;;6189533;28;20066;-79
2022/12/03 03:36:44;;;;;;;277.67;250.65;;;;;;;;;;6189344;28;20475;-80
2022/12/03 03:39:46;;;;;;;299.67;270.30;;;;;;;;;;6188316;28;20229;-81
2022/12/03 03:42:48;;;;;;;291.80;263.58;;;;;;;;;;6190411;28;20050;-80
2022/12/03 03:45:52;;;;;;;284.05;255.70;;;;;;;;;;6189344;28;20344;-80
2022/12/03 03:48:54;;;;;;;286.92;258.52;;;;;;;;;;6190267;28;20045;-80
2022/12/03 03:51:55;;;;;;;302.23;272.67;;;;;;;;;;6190132;28;20498;-80
2022/12/03 03:54:57;;;;;;;300.67;271.60;;;;;;;;;;6192232;28;20046;-80
2022/12/03 03:57:59;;;;;;;300.65;271.85;;;;;;;;;;6185089;28;20046;-80
2022/12/03 04:01:01;;;;;;;290.23;261.85;;;;;;;;;;6187222;28;20403;-80
2022/12/03 04:04:07;;;;;;;300.65;271.10;;;;;;;;;;6187134;28;20050;-80
2022/12/03 04:07:09;;;;;;;299.08;270.08;;;;;;;;;;6184611;28;20042;-80
2022/12/03 04:13:32;;;;;;;296.05;267.38;;;;;;;;;;6189686;28;20426;-79
2022/12/03 04:16:34;;;;;;;292.00;263.60;;;;;;;;;;6192573;28;20479;-80
2022/12/03 04:19:36;;;;;;;294.77;266.80;;;;;;;;;;6192344;28;20487;-80
2022/12/03 04:22:40;;;;;;;302.50;273.13;;;;;;;;;;6175043;28;20045;-80
2022/12/03 04:29:02;;;;;;;271.83;245.25;;;;;;;;;;6195530;28;20180;-80
2022/12/03 04:35:42;;;;;;;288.17;259.90;;;;;;;;;;6194227;28;20046;-81
2022/12/03 04:38:44;;;;;;;295.38;266.73;;;;;;;;;;6192720;28;20045;-80
2022/12/03 04:41:46;;;;;;;302.23;273.05;;;;;;;;;;6192424;28;20045;-80
2022/12/03 04:44:48;;;;;;;299.77;270.92;;;;;;;;;;6191081;28;20176;-79
2022/12/03 04:47:49;;;;;;;293.02;264.55;;;;;;;;;;6193930;28;20114;-80
2022/12/03 04:50:51;;;;;;;294.23;265.17;;;;;;;;;;6173760;28;20553;-80
2022/12/03 04:53:52;;;;;;;299.02;270.08;;;;;;;;;;6190325;28;20093;-80
2022/12/03 04:56:54;;;;;;;299.83;270.70;;;;;;;;;;6176722;28;20796;-79
2022/12/03 04:59:56;;;;;;;309.67;280.10;;;;;;;;;;6193963;28;20057;-80
2022/12/03 05:02:57;;;;;;;307.17;277.15;;;;;;;;;;6191908;28;20084;-79
2022/12/03 05:05:59;;;;;;;312.15;281.90;;;;;;;;;;6174241;28;20058;-79
2022/12/03 05:09:01;;;;;;;311.65;281.65;;;;;;;;;;6170402;28;20053;-79
2022/12/03 05:12:03;;;;;;;309.27;279.27;;;;;;;;;;6150589;28;20431;-80
2022/12/03 05:15:05;;;;;;;301.30;272.05;;;;;;;;;;6188975;28;20179;-80
2022/12/03 05:18:09;;;;;;;298.02;269.27;;;;;;;;;;6174947;28;20152;-79
2022/12/03 05:21:11;;;;;;;301.70;271.92;;;;;;;;;;6188763;28;20050;-80
2022/12/03 05:24:13;;;;;;;298.35;269.15;;;;;;;;;;6192459;28;20046;-81
2022/12/03 05:27:14;;;;;;;290.65;261.73;;;;;;;;;;6191997;28;20049;-81
2022/12/03 05:30:24;;;;;;;310.40;279.33;;;;;;;;;;6190335;28;20042;-79
2022/12/03 05:33:25;;;;;;;303.42;273.38;;;;;;;;;;6193360;28;20049;-79
2022/12/03 05:36:27;;;;;;;298.70;269.67;;;;;;;;;;6189082;28;20534;-79
2022/12/03 05:39:29;;;;;;;299.33;270.33;;;;;;;;;;6188806;28;20050;-80
2022/12/03 05:45:51;;;;;;;22.42;20.02;;;;;;;;;;6189437;28;20045;-80
2022/12/03 05:48:53;;;;;;;22.30;19.75;;;;;;;;;;6190249;28;20289;-80
2022/12/03 05:51:54;;;;;;;170.57;153.88;;;;;;;;;;6186567;28;20038;-80
2022/12/03 05:54:59;;;;;;;74.05;66.55;;;;;;;;;;6192161;28;20120;-81
2022/12/03 05:58:03;;;;;;;150.60;135.43;;;;;;;;;;6189642;28;20038;-80
2022/12/03 06:01:05;;;;;;;73.97;66.75;;;;;;;;;;6197366;28;21583;-80
2022/12/03 06:04:07;;;;;;;62.60;55.80;;;;;;;;;;6189885;28;20552;-80
2022/12/03 06:07:09;;;;;;;80.15;71.53;;;;;;;;;;6188683;28;20507;-80
2022/12/03 06:10:20;;;;;;;98.93;88.75;;;;;;;;;;6188321;28;21361;-80
2022/12/03 06:13:21;;;;;;;118.53;106.57;;;;;;;;;;6194306;28;20057;-79
2022/12/03 06:16:23;;;;;;;124.53;111.45;;;;;;;;;;6185945;28;20053;-80
2022/12/03 06:19:25;;;;;;;123.40;111.20;;;;;;;;;;6192323;28;20081;-80
2022/12/03 06:22:26;;;;;;;137.23;123.20;;;;;;;;;;6180348;28;20068;-80
2022/12/03 06:25:28;;;;;;;139.82;125.32;;;;;;;;;;6190871;28;20046;-81
2022/12/03 06:28:30;;;;;;;151.35;136.45;;;;;;;;;;6190941;28;20056;-80
2022/12/03 06:31:31;;;;;;;179.35;153.18;;;;;;;;;;6173363;28;20329;-81
2022/12/03 06:34:33;;;;;;;166.45;149.15;;;;;;;;;;6189530;28;20042;-80
2022/12/03 06:37:35;;;;;;;170.15;153.40;;;;;;;;;;6173368;28;20085;-80
2022/12/03 06:40:37;;;;;;;172.20;155.48;;;;;;;;;;6169308;28;20189;-80
2022/12/03 06:43:39;;;;;;;125.13;112.20;;;;;;;;;;6191980;28;20132;-80
2022/12/03 06:46:41;;;;;;;126.32;114.07;;;;;;;;;;6176197;28;20046;-80
2022/12/03 06:49:43;;;;;;;138.02;124.88;;;;;;;;;;6193724;28;20057;-80
2022/12/03 06:52:44;;;;;;;144.80;130.52;;;;;;;;;;6159083;28;20407;-79
2022/12/03 06:55:46;;;;;;;151.43;135.98;;;;;;;;;;6194270;28;20074;-80
2022/12/03 06:58:48;;;;;;;152.95;137.73;;;;;;;;;;6185742;28;20092;-80
2022/12/03 07:01:49;;;;;;;152.18;137.13;;;;;;;;;;6185942;28;20042;-79
2022/12/03 07:04:51;;;;;;;158.68;143.07;;;;;;;;;;6176254;28;20045;-80
2022/12/03 07:07:54;;;;;;;161.45;145.13;;;;;;;;;;6168153;28;20037;-79
2022/12/03 07:10:56;;;;;;;159.33;143.57;;;;;;;;;;6200605;28;20415;-79
2022/12/03 07:13:59;;;;;;;161.88;145.02;;;;;;;;;;6187868;28;21062;-78
2022/12/03 07:17:06;;;;;;;160.23;144.23;;;;;;;;;;6186948;28;20917;-79
2022/12/03 07:20:08;;;;;;;157.55;141.93;;;;;;;;;;6186016;28;20348;-79
2022/12/03 07:23:10;;;;;;;153.40;137.53;;;;;;;;;;6187775;28;20049;-79
2022/12/03 07:26:12;;;;;;;146.98;132.00;;;;;;;;;;6188288;28;20464;-80
2022/12/03 07:29:13;;;;;;;143.85;128.70;;;;;;;;;;6192236;28;20050;-79
2022/12/03 07:32:15;;;;;;;184.13;166.05;;;;;;;;;;6187935;28;20659;-78
2022/12/03 07:35:17;;;;;;;204.57;178.57;;;;;;;;;;6189064;28;20602;-79
2022/12/03 07:38:19;;;;;;;183.75;164.70;;;;;;;;;;6196136;28;20061;-78
2022/12/03 07:41:20;;;;;;;177.73;159.95;;;;;;;;;;6182349;28;20058;-78
2022/12/03 07:44:22;;;;;;;173.85;155.85;;;;;;;;;;6187417;28;20042;-79
2022/12/03 07:47:24;;;;;;;180.02;161.82;;;;;;;;;;6189823;28;20057;-79
2022/12/03 07:50:27;;;;;;;182.75;164.60;;;;;;;;;;6193796;28;21190;-79
2022/12/03 07:53:28;;;;;;;183.00;164.95;;;;;;;;;;6195756;28;20046;-79
2022/12/03 07:56:30;;;;;;;185.90;167.30;;;;;;;;;;6176215;28;20124;-79
2022/12/03 07:59:32;;;;;;;127.43;113.82;;;;;;;;;;6174451;28;21155;-79
2022/12/03 08:02:33;;;;;;;195.07;175.68;;;;;;;;;;6195511;28;20417;-79
2022/12/03 08:05:35;;;;;;;192.82;172.93;;;;;;;;;;6195674;28;20052;-81
2022/12/03 08:08:37;;;;;;;184.98;166.85;;;;;;;;;;6207219;28;20545;-80
2022/12/03 08:11:39;;;;;;;185.95;167.23;;;;;;;;;;6210352;28;20068;-80
2022/12/03 08:14:42;;;;;;;185.68;166.73;;;;;;;;;;6191614;28;21383;-80
2022/12/03 08:17:46;;;;;;;185.45;166.68;;;;;;;;;;6190070;28;20056;-79
2022/12/03 08:20:50;;;;;;;183.25;164.38;;;;;;;;;;6189347;28;20517;-82
2022/12/03 08:23:52;;;;;;;181.88;163.90;;;;;;;;;;6177668;28;20046;-79
2022/12/03 08:26:55;;;;;;;190.13;171.98;;;;;;;;;;6189491;28;20264;-80
2022/12/03 08:30:02;;;;;;;188.38;169.80;;;;;;;;;;6192228;28;20060;-79
2022/12/03 08:33:16;;;;;;;184.13;165.43;;;;;;;;;;6191762;28;20396;-80
2022/12/03 08:36:20;;;;;;;184.50;166.20;;;;;;;;;;6149783;28;20042;-80
2022/12/03 08:39:29;;;;;;;188.48;169.52;;;;;;;;;;6188664;28;20121;-79
2022/12/03 08:42:41;;;;;;;188.80;169.98;;;;;;;;;;6188456;28;20054;-79
2022/12/03 08:45:43;;;;;;;184.63;166.17;;;;;;;;;;6184632;28;20072;-79
2022/12/03 08:48:46;;;;;;;187.23;168.90;;;;;;;;;;6168711;28;22185;-79
2022/12/03 08:51:56;;;;;;;185.40;166.57;;;;;;;;;;6190765;28;20042;-78
2022/12/03 08:54:59;;;;;;;182.90;165.05;;;;;;;;;;6186883;28;20054;-79
2022/12/03 08:58:20;;;;;;;185.55;166.93;;;;;;;;;;6187029;28;20456;-80
2022/12/03 09:01:40;;;;;;;186.02;167.25;;;;;;;;;;6185336;28;20045;-80
2022/12/03 09:04:45;;;;;;;181.32;163.63;;;;;;;;;;6169407;28;20273;-79
2022/12/03 09:07:46;;;;;;;189.32;170.07;;;;;;;;;;6183458;28;20498;-80
2022/12/03 09:10:48;;;;;;;195.70;175.85;;;;;;;;;;6184579;28;20046;-80
2022/12/03 09:13:51;;;;;;;194.30;174.82;;;;;;;;;;6189433;28;20422;-80
2022/12/03 09:16:54;;;;;;;199.98;179.50;;;;;;;;;;6185926;28;20073;-79
2022/12/03 09:19:56;;;;;;;197.85;178.50;;;;;;;;;;6193895;28;20473;-79
2022/12/03 09:22:58;;;;;;;201.23;181.23;;;;;;;;;;6182433;28;20561;-81
2022/12/03 09:25:59;;;;;;;196.32;176.05;;;;;;;;;;6189598;28;20264;-80
2022/12/03 09:29:01;;;;;;;204.02;183.10;;;;;;;;;;6188047;28;20069;-80
2022/12/03 09:32:09;;;;;;;202.88;182.50;;;;;;;;;;6187629;28;20252;-81
2022/12/03 09:35:19;;;;;;;203.05;183.10;;;;;;;;;;6191407;28;20045;-81
2022/12/03 09:38:21;;;;;;;203.32;182.98;;;;;;;;;;6185477;28;20506;-80
2022/12/03 09:41:23;;;;;;;189.50;170.00;;;;;;;;;;6191226;28;20407;-81
2022/12/03 09:44:32;;;;;;;202.00;180.98;;;;;;;;;;6168073;28;20057;-81
2022/12/03 09:47:33;;;;;;;193.15;174.13;;;;;;;;;;6180944;28;20080;-81
2022/12/03 09:50:38;;;;;;;197.15;177.13;;;;;;;;;;6189518;28;20802;-80
2022/12/03 09:53:40;;;;;;;206.43;185.85;;;;;;;;;;6169415;28;20057;-80
2022/12/03 09:56:42;;;;;;;195.55;175.55;;;;;;;;;;6188127;28;20038;-80
2022/12/03 09:59:44;;;;;;;195.60;176.35;;;;;;;;;;6191836;28;20058;-81
2022/12/03 10:02:47;;;;;;;191.32;171.82;;;;;;;;;;6186724;28;20042;-80
2022/12/03 10:05:52;;;;;;;196.32;176.48;;;;;;;;;;6184167;28;20329;-80
2022/12/03 10:08:54;;;;;;;203.23;183.25;;;;;;;;;;6189300;28;20042;-82
2022/12/03 10:11:58;;;;;;;199.30;179.20;;;;;;;;;;6189485;28;20188;-81
2022/12/03 10:15:00;;;;;;;208.65;188.07;;;;;;;;;;6182953;28;20123;-79
2022/12/03 10:18:17;;;;;;;193.63;173.27;;;;;;;;;;6184043;28;20303;-80
2022/12/03 10:21:27;;;;;;;197.10;177.70;;;;;;;;;;6184770;28;22094;-80
2022/12/03 10:24:34;;;;;;;195.63;175.88;;;;;;;;;;6192988;28;20486;-80
2022/12/03 10:27:36;;;;;;;196.35;177.00;;;;;;;;;;6190789;28;21487;-80
2022/12/03 10:30:51;;;;;;;197.00;177.15;;;;;;;;;;6183157;28;20046;-80
2022/12/03 10:33:57;;;;;;;202.13;182.15;;;;;;;;;;6187904;28;20517;-80
2022/12/03 10:37:07;;;;;;;204.45;184.00;;;;;;;;;;6177738;28;20049;-81
2022/12/03 10:40:11;;;;;;;207.95;187.27;;;;;;;;;;6186913;28;20057;-81
2022/12/03 10:43:12;;;;;;;211.02;189.35;;;;;;;;;;6191931;28;20050;-82
2022/12/03 10:46:17;;;;;;;208.18;187.57;;;;;;;;;;6185633;28;20049;-79
2022/12/03 10:49:19;;;;;;;191.63;172.55;;;;;;;;;;6181555;28;20072;-81
2022/12/03 10:52:21;;;;;;;200.02;179.73;;;;;;;;;;6188865;28;20498;-80
2022/12/03 10:55:31;;;;;;;216.32;193.68;;;;;;;;;;6175593;28;20553;-81
2022/12/03 10:58:38;;;;;;;206.60;185.88;;;;;;;;;;6186694;28;20053;-81
2022/12/03 11:01:40;;;;;;;208.85;187.30;;;;;;;;;;6188522;28;20527;-81
2022/12/03 11:04:42;;;;;;;205.50;185.02;;;;;;;;;;6191814;28;20397;-81
2022/12/03 11:07:44;;;;;;;213.27;191.93;;;;;;;;;;6188207;28;20046;-80
2022/12/03 11:11:01;;;;;;;194.38;174.23;;;;;;;;;;6189818;28;20271;-80
2022/12/03 11:14:03;;;;;;;204.70;184.48;;;;;;;;;;6189158;28;20045;-80
2022/12/03 11:17:06;;;;;;;214.50;192.90;;;;;;;;;;6185477;28;20135;-80
2022/12/03 11:20:32;;;;;;;254.75;208.57;;;;;;;;;;6164204;28;20137;-79
2022/12/03 11:23:43;;;;;;;206.55;185.85;;;;;;;;;;6174491;28;20180;-78
2022/12/03 11:26:44;;;;;;;201.25;181.50;;;;;;;;;;6188350;28;20054;-81
2022/12/03 11:29:57;;;;;;;204.10;183.60;;;;;;;;;;6187407;28;20047;-78
2022/12/03 11:33:01;;;;;;;211.88;190.90;;;;;;;;;;6188469;28;20053;-79
2022/12/03 11:36:03;;;;;;;212.90;191.35;;;;;;;;;;6168587;28;20498;-78
2022/12/03 11:39:07;;;;;;;214.75;193.70;;;;;;;;;;6184655;28;20057;-79
2022/12/03 11:42:24;;;;;;;205.25;184.60;;;;;;;;;;6168988;28;20053;-78
2022/12/03 11:45:38;;;;;;;205.57;184.65;;;;;;;;;;6181172;28;20190;-78
2022/12/03 11:48:44;;;;;;;208.68;187.80;;;;;;;;;;6189325;28;20050;-78
2022/12/03 11:51:47;;;;;;;211.32;190.13;;;;;;;;;;6202614;28;20592;-80
2022/12/03 11:54:53;;;;;;;201.30;180.57;;;;;;;;;;6189547;28;20039;-80
2022/12/03 11:58:00;;;;;;;219.20;197.57;;;;;;;;;;6181091;28;20042;-79
2022/12/03 12:01:05;;;;;;;214.93;193.32;;;;;;;;;;6178829;28;20072;-80
2022/12/03 12:04:30;;;;;;;219.25;196.70;;;;;;;;;;6169769;28;20061;-81
2022/12/03 12:07:36;;;;;;;220.90;198.85;;;;;;;;;;6173345;28;20176;-82
2022/12/03 12:10:40;;;;;;;217.30;195.32;;;;;;;;;;6179698;28;20403;-81
2022/12/03 12:13:42;;;;;;;227.48;204.48;;;;;;;;;;6178539;28;20414;-83
2022/12/03 12:16:54;;;;;;;224.95;201.73;;;;;;;;;;6180646;28;20049;-81
2022/12/03 12:20:22;;;;;;;213.48;191.85;;;;;;;;;;6154012;28;20054;-81
2022/12/03 12:23:27;;;;;;;219.27;196.50;;;;;;;;;;6177930;28;20050;-82
2022/12/03 12:26:29;;;;;;;223.13;199.10;;;;;;;;;;6181886;28;20053;-80
2022/12/03 12:29:31;;;;;;;251.13;223.23;;;;;;;;;;6178512;28;20107;-81
2022/12/03 12:32:47;;;;;;;214.23;191.70;;;;;;;;;;6185928;28;20042;-80
2022/12/03 12:35:50;;;;;;;228.60;204.38;;;;;;;;;;6195522;28;20041;-80
2022/12/03 12:38:51;;;;;;;213.77;192.20;;;;;;;;;;6184720;28;20542;-80
2022/12/03 12:41:53;;;;;;;202.30;181.93;;;;;;;;;;6185877;28;20084;-80
2022/12/03 12:45:04;;;;;;;202.13;181.13;;;;;;;;;;6180173;28;20045;-79
2022/12/03 12:48:13;;;;;;;192.38;172.07;;;;;;;;;;6212396;28;20046;-85
2022/12/03 12:51:19;;;;;;;199.00;178.63;;;;;;;;;;6186574;28;20108;-85
2022/12/03 12:54:21;;;;;;;179.73;160.82;;;;;;;;;;6186692;28;20045;-85
2022/12/03 12:57:23;;;;;;;189.30;169.07;;;;;;;;;;6185104;28;20055;-87
2022/12/03 13:00:25;;;;;;;187.05;166.98;;;;;;;;;;6200995;28;20130;-87
2022/12/03 13:03:31;;;;;;;192.30;172.63;;;;;;;;;;6154338;28;20076;-87
2022/12/03 13:06:34;;;;;;;205.25;184.52;;;;;;;;;;6174665;28;20046;-87
2022/12/03 13:09:37;;;;;;;176.20;157.88;;;;;;;;;;6168635;28;20114;-87
2022/12/03 13:12:39;;;;;;;187.15;167.15;;;;;;;;;;6198855;28;20050;-86
2022/12/03 13:15:49;;;;;;;185.65;166.30;;;;;;;;;;6176558;28;20137;-85
2022/12/03 13:18:56;;;;;;;183.63;164.30;;;;;;;;;;6175954;28;20057;-85
2022/12/03 13:22:11;;;;;;;187.07;167.43;;;;;;;;;;6178209;28;20046;-85
2022/12/03 13:25:32;;;;;;;183.23;163.73;;;;;;;;;;6202171;28;20042;-85
2022/12/03 13:28:56;;;;;;;188.80;169.85;;;;;;;;;;6183645;28;20557;-86
2022/12/03 13:32:00;;;;;;;188.27;168.48;;;;;;;;;;6160594;28;20054;-86
2022/12/03 13:35:16;;;;;;;178.98;160.32;;;;;;;;;;6189974;28;20053;-86
2022/12/03 13:38:19;;;;;;;180.75;161.77;;;;;;;;;;6191135;28;20129;-85
2022/12/03 13:44:47;;;;;;;186.32;166.77;;;;;;;;;;6180980;28;20145;-86
2022/12/03 13:47:54;;;;;;;199.40;178.40;;;;;;;;;;6175171;28;20069;-84
2022/12/03 13:51:19;;;;;;;193.00;172.55;;;;;;;;;;6190051;28;20054;-82
2022/12/03 13:54:25;;;;;;;193.95;174.32;;;;;;;;;;6205940;28;20057;-84
2022/12/03 13:57:27;;;;;;;187.50;168.18;;;;;;;;;;6189520;28;20046;-84
2022/12/03 14:00:29;;;;;;;194.05;173.90;;;;;;;;;;6206101;28;20053;-84
2022/12/03 14:03:30;;;;;;;194.02;174.57;;;;;;;;;;6208013;28;20074;-84
2022/12/03 14:06:33;;;;;;;204.32;183.38;;;;;;;;;;6181524;28;20096;-84
2022/12/03 14:09:35;;;;;;;186.80;167.63;;;;;;;;;;6193246;28;20059;-84
2022/12/03 14:12:37;;;;;;;178.60;159.40;;;;;;;;;;6183602;28;20050;-84
2022/12/03 14:15:38;;;;;;;185.68;165.80;;;;;;;;;;6193797;28;20576;-85
2022/12/03 14:18:40;;;;;;;176.00;156.98;;;;;;;;;;6187423;28;20050;-85
2022/12/03 14:21:42;;;;;;;193.68;173.55;;;;;;;;;;6184529;28;20077;-83
2022/12/03 14:24:43;;;;;;;187.90;167.52;;;;;;;;;;6188294;28;20055;-84
2022/12/03 14:27:45;;;;;;;186.48;166.48;;;;;;;;;;6188197;28;20038;-84
2022/12/03 14:30:47;;;;;;;199.15;179.07;;;;;;;;;;6201414;28;20046;-85
2022/12/03 14:33:48;;;;;;;200.80;180.07;;;;;;;;;;6185327;28;20042;-85
2022/12/03 14:36:50;;;;;;;189.90;170.35;;;;;;;;;;6182145;28;20053;-83
2022/12/03 14:39:54;;;;;;;202.15;180.90;;;;;;;;;;6184882;28;20038;-85
2022/12/03 14:42:56;;;;;;;213.40;191.48;;;;;;;;;;6180690;28;20046;-85
2022/12/03 14:45:58;;;;;;;191.20;171.95;;;;;;;;;;6181237;28;20046;-84
2022/12/03 14:49:00;;;;;;;177.15;158.75;;;;;;;;;;6166949;28;20046;-85
2022/12/03 14:52:02;;;;;;;188.07;166.23;;;;;;;;;;6171025;28;20126;-84
2022/12/03 14:55:04;;;;;;;189.23;169.25;;;;;;;;;;6176796;28;20116;-84
2022/12/03 14:58:06;;;;;;;204.37;183.13;;;;;;;;;;6165077;28;20170;-85
2022/12/03 15:01:08;;;;;;;198.80;178.45;;;;;;;;;;6204894;28;20433;-85
2022/12/03 15:04:12;;;;;;;191.38;171.65;;;;;;;;;;6189380;28;20056;-86
2022/12/03 15:07:14;;;;;;;192.38;172.85;;;;;;;;;;6206364;28;20054;-83
2022/12/03 15:10:15;;;;;;;194.13;173.98;;;;;;;;;;6175310;28;20056;-85
2022/12/03 15:13:18;;;;;;;186.43;167.13;;;;;;;;;;6185465;28;20065;-85
2022/12/03 15:16:20;;;;;;;181.30;162.45;;;;;;;;;;6189982;28;20129;-84
2022/12/03 15:19:21;;;;;;;187.25;167.70;;;;;;;;;;6195991;28;20069;-84
2022/12/03 15:22:23;;;;;;;187.63;168.07;;;;;;;;;;6195728;28;20054;-84
2022/12/03 15:25:24;;;;;;;202.45;180.93;;;;;;;;;;6207537;28;20592;-84
2022/12/03 15:28:26;;;;;;;210.15;188.50;;;;;;;;;;6175504;28;20050;-84
2022/12/03 15:31:28;;;;;;;195.85;175.68;;;;;;;;;;6205339;28;20038;-83
2022/12/03 15:34:30;;;;;;;200.25;179.02;;;;;;;;;;6211888;28;20046;-84
2022/12/03 15:37:32;;;;;;;201.30;180.50;;;;;;;;;;6197983;28;20054;-84
2022/12/03 15:40:33;;;;;;;200.68;179.68;;;;;;;;;;6190697;28;20046;-85
2022/12/03 15:43:35;;;;;;;192.30;171.98;;;;;;;;;;6190859;28;20046;-85
2022/12/03 15:46:37;;;;;;;199.50;178.80;;;;;;;;;;6189868;28;20250;-84
2022/12/03 15:49:38;;;;;;;213.20;190.80;;;;;;;;;;6182286;28;20050;-84
2022/12/03 15:52:40;;;;;;;210.00;188.63;;;;;;;;;;6206601;28;20057;-84
2022/12/03 15:55:42;;;;;;;214.70;192.45;;;;;;;;;;6170868;28;20120;-84
2022/12/03 15:58:44;;;;;;;222.20;200.27;;;;;;;;;;6187207;28;20046;-84
2022/12/03 16:01:49;;;;;;;209.15;188.20;;;;;;;;;;6184988;28;20049;-84
2022/12/03 16:04:52;;;;;;;207.43;185.95;;;;;;;;;;6204126;28;20062;-84
2022/12/03 16:07:55;;;;;;;220.27;197.68;;;;;;;;;;6208899;28;20064;-84
2022/12/03 16:10:57;;;;;;;224.43;201.98;;;;;;;;;;6197500;28;20042;-83
2022/12/03 16:14:00;;;;;;;216.10;194.13;;;;;;;;;;6195132;28;20049;-85
2022/12/03 16:17:02;;;;;;;222.30;199.75;;;;;;;;;;6202700;28;20296;-84
2022/12/03 16:20:09;;;;;;;223.68;200.90;;;;;;;;;;6196201;28;20065;-85
2022/12/03 16:23:11;;;;;;;218.05;195.68;;;;;;;;;;6194593;28;20061;-85
2022/12/03 16:26:13;;;;;;;233.23;208.35;;;;;;;;;;6173238;28;20050;-85
2022/12/03 16:29:15;;;;;;;239.77;213.25;;;;;;;;;;6191721;28;20050;-84
2022/12/03 16:32:17;;;;;;;230.82;206.50;;;;;;;;;;6193560;28;20054;-84
2022/12/03 16:35:19;;;;;;;232.02;207.70;;;;;;;;;;6189325;28;20070;-85
2022/12/03 16:38:20;;;;;;;228.90;205.52;;;;;;;;;;6184784;28;20050;-85
2022/12/03 16:41:22;;;;;;;228.57;204.65;;;;;;;;;;6192256;28;20047;-86
2022/12/03 16:47:49;;;;;;;245.02;218.70;;;;;;;;;;6170325;28;20122;-85
2022/12/03 16:50:52;;;;;;;250.43;223.45;;;;;;;;;;6175274;28;20077;-84
2022/12/03 16:53:54;;;;;;;235.75;209.63;;;;;;;;;;6204861;28;20054;-84
2022/12/03 16:56:55;;;;;;;248.30;221.15;;;;;;;;;;6191432;28;20053;-85
2022/12/03 16:59:57;;;;;;;227.75;203.52;;;;;;;;;;6171297;28;20039;-85
2022/12/03 17:02:59;;;;;;;226.02;202.68;;;;;;;;;;6189971;28;20165;-84
2022/12/03 17:06:02;;;;;;;221.98;199.25;;;;;;;;;;6192635;28;20047;-85
2022/12/03 17:09:03;;;;;;;215.80;193.90;;;;;;;;;;6174679;28;20617;-85
2022/12/03 17:12:05;;;;;;;227.30;203.77;;;;;;;;;;6173273;28;20050;-86
2022/12/03 17:15:08;;;;;;;225.48;202.32;;;;;;;;;;6171906;28;20050;-84
2022/12/03 17:18:10;;;;;;;231.75;207.60;;;;;;;;;;6183940;28;20057;-84
2022/12/03 17:21:11;;;;;;;223.30;199.88;;;;;;;;;;6192716;28;20081;-85
2022/12/03 17:24:13;;;;;;;221.52;199.13;;;;;;;;;;6218028;28;20046;-84
2022/12/03 17:27:15;;;;;;;239.95;215.63;;;;;;;;;;6190783;28;20057;-85
2022/12/03 17:30:18;;;;;;;230.60;206.93;;;;;;;;;;6176480;28;20081;-84
2022/12/03 17:33:19;;;;;;;226.15;203.43;;;;;;;;;;6192068;28;20057;-85
2022/12/03 17:36:22;;;;;;;223.70;200.57;;;;;;;;;;6190380;28;21531;-86
2022/12/03 17:39:24;;;;;;;222.95;199.57;;;;;;;;;;6190354;28;20052;-84
2022/12/03 17:42:26;;;;;;;251.40;225.15;;;;;;;;;;6194431;28;20114;-85